Kaplan, Louisiana
Current Conditions -  °F | °C
As of 8:55 PM on Friday 21 Nov 2014 (Local Time) from KIYA Reporting Station
Overcast Overcast  
Wind Chill: 56°   Ceiling: 11000
Heat Index: 56°   Visibility: 10mi
Dew Point: 50°   Wind: 3mph
Humidity: 79%   Direction: 90°E
Pressure: 30.24"   Gusts: NA
Location:  30°N, 92.28°W
Report Text: KIYA 220255Z AUTO 09003KT 10SM OVC110 14/10 A3024 RMK AO2 T01350100
Loading
Personal Weather Stations






























Interactive Weather Map New forecast layout! Learn more

10-Day Weather Forecast

Advertisements
Track Severe Weather on mobile